Time;durP1;ratioP1;P1;durP2;ratioP2;P2;SDS_P1;SDS_P2;PMS_P1;PMS_P2;Temp;Humidity;BMP_temperature;BMP_pressure;BME280_temperature;BME280_humidity;BME280_pressure;Samples;Min_cycle;Max_cycle;Signal;HPM_P1;HPM_P2
2023/04/04 00:00:40;;;;;;;;;;;;;;;2.41;49.17;98236.53;4441108;32;19995;-82
2023/04/04 00:03:07;;;;;;;;;;;;;;;2.38;49.21;98239.09;4441399;32;19968;-81
2023/04/04 00:05:34;;;;;;;;;;;;;;;1.91;49.70;98235.13;4441429;32;19973;-81
2023/04/04 00:08:02;;;;;;;;;;;;;;;1.51;50.46;98234.47;4440992;32;19993;-81
2023/04/04 00:10:29;;;;;;;;;;;;;;;1.30;52.55;98243.88;4427300;32;19993;-81
2023/04/04 00:12:55;;;;;;;;;;;;;;;1.94;50.70;98247.84;4441351;32;19996;-81
2023/04/04 00:15:22;;;;;;;;;;;;;;;1.54;51.51;98245.47;4441012;32;19976;-81
2023/04/04 00:17:49;;;;;;;;;;;;;;;1.57;51.61;98250.53;4441245;32;20003;-81
2023/04/04 00:20:16;;;;;;;;;;;;;;;1.79;50.43;98251.31;4441393;32;19981;-81
2023/04/04 00:22:43;;;;;;;;;;;;;;;1.91;49.98;98246.16;4441020;32;19969;-82
2023/04/04 00:25:10;;;;;;;;;;;;;;;1.85;50.48;98253.84;4427413;32;20415;-81
2023/04/04 00:27:36;;;;;;;;;;;;;;;2.05;49.64;98253.72;4441209;32;19985;-81
2023/04/04 00:30:03;;;;;;;;;;;;;;;2.17;49.34;98247.72;4439903;32;20291;-81
2023/04/04 00:32:30;;;;;;;;;;;;;;;1.68;49.80;98246.25;4441286;32;20013;-81
2023/04/04 00:34:57;;;;;;;;;;;;;;;1.42;51.01;98246.38;4441249;32;20032;-81
2023/04/04 00:37:24;;;;;;;;;;;;;;;1.72;49.87;98252.19;4427025;32;20308;-81
2023/04/04 00:39:51;;;;;;;;;;;;;;;1.78;49.15;98239.44;4441087;32;20255;-81
2023/04/04 00:42:17;;;;;;;;;;;;;;;2.20;49.13;98251.09;4441208;32;20445;-81
2023/04/04 00:44:44;;;;;;;;;;;;;;;2.24;49.35;98249.38;4440803;32;19973;-81
2023/04/04 00:47:11;;;;;;;;;;;;;;;2.00;49.65;98247.81;4441218;32;19977;-81
2023/04/04 00:49:38;;;;;;;;;;;;;;;2.40;48.92;98239.94;4440693;32;19999;-82
2023/04/04 00:52:06;;;;;;;;;;;;;;;2.04;49.06;98236.78;4441077;32;20431;-81
2023/04/04 00:54:33;;;;;;;;;;;;;;;1.66;50.85;98237.81;4441126;32;19965;-81
2023/04/04 00:57:00;;;;;;;;;;;;;;;1.93;49.96;98236.84;4426943;32;19981;-81
2023/04/04 00:59:27;;;;;;;;;;;;;;;2.01;49.51;98229.12;4441240;32;20004;-81
2023/04/04 01:01:54;;;;;;;;;;;;;;;1.81;49.79;98223.31;4427301;32;19987;-81
2023/04/04 01:04:21;;;;;;;;;;;;;;;2.06;50.51;98234.22;4440599;32;19984;-81
2023/04/04 01:06:48;;;;;;;;;;;;;;;1.65;51.54;98230.19;4441022;32;19988;-81
2023/04/04 01:09:15;;;;;;;;;;;;;;;1.93;51.06;98226.66;4426848;32;20054;-81
2023/04/04 01:11:42;;;;;;;;;;;;;;;1.31;52.51;98225.22;4440617;32;19980;-81
2023/04/04 01:14:08;;;;;;;;;;;;;;;1.91;51.65;98218.16;4440963;32;19965;-81
2023/04/04 01:16:35;;;;;;;;;;;;;;;1.64;52.19;98215.78;4440851;32;19991;-81
2023/04/04 01:19:02;;;;;;;;;;;;;;;1.84;52.15;98218.22;4426610;32;20323;-81
2023/04/04 01:21:28;;;;;;;;;;;;;;;1.65;52.45;98215.75;4427044;32;19973;-81
2023/04/04 01:24:00;;;;;;;;;;;;;;;2.06;51.77;98213.84;4426919;32;19968;-81
2023/04/04 01:26:27;;;;;;;;;;;;;;;1.59;52.73;98207.31;4440486;32;19981;-81
2023/04/04 01:28:54;;;;;;;;;;;;;;;1.56;52.91;98212.41;4440682;32;19976;-81
2023/04/04 01:31:22;;;;;;;;;;;;;;;1.91;52.55;98205.44;4426926;32;20611;-81
2023/04/04 01:33:52;;;;;;;;;;;;;;;1.68;52.81;98202.19;4426650;32;19972;-81
2023/04/04 01:36:25;;;;;;;;;;;;;;;1.93;52.29;98187.63;4427038;32;19996;-81
2023/04/04 01:38:53;;;;;;;;;;;;;;;2.34;50.56;98189.91;4440347;32;19988;-81
2023/04/04 01:41:20;;;;;;;;;;;;;;;1.62;53.06;98184.41;4426397;32;19987;-81
2023/04/04 01:43:47;;;;;;;;;;;;;;;2.43;50.98;98187.25;4426718;32;19961;-81
2023/04/04 01:46:16;;;;;;;;;;;;;;;2.06;51.44;98173.13;4426364;32;20003;-81
2023/04/04 01:48:46;;;;;;;;;;;;;;;2.11;52.02;98167.13;4426595;32;19989;-81
2023/04/04 01:51:13;;;;;;;;;;;;;;;2.01;51.43;98151.09;4440420;32;20453;-81
2023/04/04 01:53:40;;;;;;;;;;;;;;;2.24;50.81;98155.19;4426225;32;20006;-82
2023/04/04 01:56:07;;;;;;;;;;;;;;;2.15;51.77;98142.53;4440372;32;20248;-81
2023/04/04 01:58:33;;;;;;;;;;;;;;;1.63;52.88;98138.63;4440360;32;20327;-81
2023/04/04 02:01:00;;;;;;;;;;;;;;;1.45;53.69;98129.41;4439976;32;19992;-81
2023/04/04 02:03:27;;;;;;;;;;;;;;;1.84;52.84;98134.25;4440326;32;20348;-81
2023/04/04 02:05:54;;;;;;;;;;;;;;;1.31;53.74;98115.91;4440114;32;19977;-81
2023/04/04 02:08:20;;;;;;;;;;;;;;;1.41;54.37;98124.34;4439855;32;20310;-81
2023/04/04 02:10:47;;;;;;;;;;;;;;;1.57;53.82;98103.03;4440025;32;19965;-81
2023/04/04 02:13:14;;;;;;;;;;;;;;;1.20;54.39;98109.19;4440185;32;19965;-81
2023/04/04 02:15:41;;;;;;;;;;;;;;;1.52;54.03;98111.56;4439843;32;19981;-81
2023/04/04 02:18:08;;;;;;;;;;;;;;;1.91;53.13;98101.13;4440039;32;20326;-80
2023/04/04 02:20:34;;;;;;;;;;;;;;;1.15;55.05;98099.03;4440086;32;19968;-81
2023/04/04 02:23:01;;;;;;;;;;;;;;;1.16;55.16;98099.03;4439740;32;20310;-81
2023/04/04 02:25:28;;;;;;;;;;;;;;;1.40;54.59;98098.06;4426060;32;19999;-81
2023/04/04 02:27:54;;;;;;;;;;;;;;;1.11;56.00;98112.63;4439605;32;20267;-81
2023/04/04 02:30:21;;;;;;;;;;;;;;;1.25;55.64;98108.31;4439814;32;19969;-81
2023/04/04 02:32:49;;;;;;;;;;;;;;;1.29;55.33;98094.75;4439956;32;20022;-81
2023/04/04 02:35:16;;;;;;;;;;;;;;;1.39;55.15;98105.72;4439558;32;19977;-81
2023/04/04 02:37:44;;;;;;;;;;;;;;;1.30;55.08;98106.59;4439866;32;19977;-81
2023/04/04 02:40:10;;;;;;;;;;;;;;;1.42;54.95;98086.19;4439732;32;20034;-81
2023/04/04 02:42:40;;;;;;;;;;;;;;;1.03;56.19;98106.72;4439400;32;20006;-81
2023/04/04 02:45:07;;;;;;;;;;;;;;;1.29;55.63;98107.47;4439683;32;20441;-81
2023/04/04 02:47:34;;;;;;;;;;;;;;;1.20;55.79;98104.97;4439696;32;19981;-80
2023/04/04 02:50:01;;;;;;;;;;;;;;;1.38;55.40;98094.72;4439235;32;20026;-81
2023/04/04 02:52:28;;;;;;;;;;;;;;;1.52;55.17;98096.31;4440393;32;19969;-81
2023/04/04 02:54:54;;;;;;;;;;;;;;;1.73;54.58;98107.19;4441834;32;20334;-81
2023/04/04 02:57:21;;;;;;;;;;;;;;;1.20;55.62;98102.41;4441619;32;19987;-81
2023/04/04 02:59:48;;;;;;;;;;;;;;;1.64;54.58;98097.06;4441606;32;19988;-81
2023/04/04 03:02:15;;;;;;;;;;;;;;;1.54;54.92;98089.50;4441977;32;19983;-81
2023/04/04 03:04:42;;;;;;;;;;;;;;;1.15;56.06;98096.50;4441530;32;19972;-81
2023/04/04 03:07:10;;;;;;;;;;;;;;;1.07;56.71;98091.47;4441889;32;20327;-81
2023/04/04 03:09:36;;;;;;;;;;;;;;;1.12;56.28;98088.87;4441387;32;19973;-81
2023/04/04 03:12:04;;;;;;;;;;;;;;;0.93;57.22;98110.97;4441557;32;20316;-81
2023/04/04 03:14:31;;;;;;;;;;;;;;;1.39;56.43;98100.63;4441822;32;19980;-81
2023/04/04 03:16:58;;;;;;;;;;;;;;;1.53;55.24;98111.56;4441496;32;19981;-81
2023/04/04 03:19:25;;;;;;;;;;;;;;;1.42;55.85;98116.72;4441488;32;20020;-81
2023/04/04 03:21:52;;;;;;;;;;;;;;;1.21;56.26;98109.19;4441806;32;19983;-81
2023/04/04 03:24:18;;;;;;;;;;;;;;;1.28;56.52;98112.56;4441353;32;19976;-82
2023/04/04 03:26:45;;;;;;;;;;;;;;;1.57;56.08;98122.53;4441787;32;19980;-81
2023/04/04 03:29:12;;;;;;;;;;;;;;;1.44;56.31;98109.06;4441522;32;19992;-81
2023/04/04 03:31:40;;;;;;;;;;;;;;;1.44;56.15;98121.78;4441432;32;20044;-81
2023/04/04 03:34:08;;;;;;;;;;;;;;;1.72;55.92;98123.31;4441693;32;20314;-81
2023/04/04 03:36:35;;;;;;;;;;;;;;;1.95;55.05;98128.25;4441754;32;19976;-81
2023/04/04 03:39:02;;;;;;;;;;;;;;;1.71;55.14;98125.87;4441143;32;19969;-81
2023/04/04 03:41:28;;;;;;;;;;;;;;;1.50;56.18;98126.84;4441684;32;19987;-81
2023/04/04 03:43:55;;;;;;;;;;;;;;;1.62;55.99;98133.56;4441552;32;19988;-81
2023/04/04 03:46:22;;;;;;;;;;;;;;;2.01;54.91;98140.91;4441246;32;19980;-81
2023/04/04 03:48:48;;;;;;;;;;;;;;;1.66;55.62;98130.97;4441378;32;20342;-81
2023/04/04 03:51:21;;;;;;;;;;;;;;;1.83;55.50;98141.06;4441589;32;20017;-81
2023/04/04 03:53:48;;;;;;;;;;;;;;;1.44;57.06;98134.50;4423112;32;138916;-81
2023/04/04 03:56:14;;;;;;;;;;;;;;;1.51;56.14;98140.41;4441551;32;19992;-81
2023/04/04 03:58:41;;;;;;;;;;;;;;;1.30;56.83;98136.25;4441327;32;19973;-81
2023/04/04 04:01:08;;;;;;;;;;;;;;;1.33;57.27;98141.31;4441156;32;20033;-81
2023/04/04 04:03:34;;;;;;;;;;;;;;;1.85;55.66;98139.34;4441415;32;19977;-81
2023/04/04 04:06:02;;;;;;;;;;;;;;;1.86;56.17;98143.56;4441022;32;20248;-81
2023/04/04 04:08:28;;;;;;;;;;;;;;;2.10;54.93;98139.16;4441219;32;20042;-81
2023/04/04 04:10:55;;;;;;;;;;;;;;;1.67;56.46;98147.91;4441176;32;20295;-81
2023/04/04 04:13:22;;;;;;;;;;;;;;;1.59;56.56;98146.25;4441096;32;19992;-82
2023/04/04 04:15:48;;;;;;;;;;;;;;;1.50;57.05;98146.34;4441499;32;20331;-81
2023/04/04 04:18:15;;;;;;;;;;;;;;;1.99;55.94;98146.88;4441252;32;19973;-81
2023/04/04 04:20:42;;;;;;;;;;;;;;;2.04;55.92;98150.25;4440951;32;20006;-81
2023/04/04 04:23:09;;;;;;;;;;;;;;;2.00;55.52;98149.41;4441359;32;20044;-81
2023/04/04 04:25:35;;;;;;;;;;;;;;;1.25;57.86;98150.66;4441261;32;20015;-81
2023/04/04 04:28:02;;;;;;;;;;;;;;;0.94;58.94;98155.84;4440917;32;19969;-81
2023/04/04 04:30:29;;;;;;;;;;;;;;;1.48;57.83;98141.25;4427502;32;20007;-81
2023/04/04 04:32:56;;;;;;;;;;;;;;;1.50;57.49;98143.78;4441060;32;19980;-81
2023/04/04 04:35:22;;;;;;;;;;;;;;;2.30;55.46;98155.97;4440977;32;20252;-81
2023/04/04 04:37:49;;;;;;;;;;;;;;;1.81;56.18;98141.91;4441219;32;20351;-81
2023/04/04 04:40:16;;;;;;;;;;;;;;;1.94;55.96;98152.00;4441170;32;19961;-81
2023/04/04 04:42:44;;;;;;;;;;;;;;;1.90;56.28;98146.94;4440879;32;20022;-81
2023/04/04 04:45:11;;;;;;;;;;;;;;;1.91;56.71;98146.91;4441091;32;19981;-81
2023/04/04 04:47:38;;;;;;;;;;;;;;;1.94;55.78;98154.56;4441078;32;19977;-81
2023/04/04 04:50:05;;;;;;;;;;;;;;;2.03;56.07;98148.56;4440729;32;19985;-81
2023/04/04 04:52:31;;;;;;;;;;;;;;;1.81;56.82;98149.53;4441279;32;19977;-81
2023/04/04 04:54:58;;;;;;;;;;;;;;;1.97;56.24;98144.34;4441184;32;20003;-81
2023/04/04 04:57:25;;;;;;;;;;;;;;;1.33;57.99;98137.09;4441226;32;20278;-81
2023/04/04 04:59:51;;;;;;;;;;;;;;;1.55;57.75;98142.06;4440867;32;19973;-81
2023/04/04 05:02:18;;;;;;;;;;;;;;;1.82;57.22;98141.91;4440690;32;19973;-81
2023/04/04 05:04:45;;;;;;;;;;;;;;;1.79;57.29;98135.97;4440986;32;20028;-81
2023/04/04 05:07:12;;;;;;;;;;;;;;;2.18;56.51;98134.84;4441017;32;20320;-81
2023/04/04 05:09:38;;;;;;;;;;;;;;;1.58;57.82;98125.06;4440344;32;19961;-81
2023/04/04 05:12:05;;;;;;;;;;;;;;;2.11;56.76;98123.03;4441198;32;19973;-81
2023/04/04 05:14:32;;;;;;;;;;;;;;;1.70;57.39;98121.62;4440589;32;19977;-81
2023/04/04 05:16:58;;;;;;;;;;;;;;;2.11;55.87;98126.41;4440382;32;19977;-81
2023/04/04 05:19:26;;;;;;;;;;;;;;;2.39;55.32;98129.59;4440664;32;19980;-81
2023/04/04 05:21:53;;;;;;;;;;;;;;;1.82;56.59;98121.56;4440901;32;19977;-81
2023/04/04 05:24:21;;;;;;;;;;;;;;;1.85;56.49;98120.69;4440552;32;19977;-81
2023/04/04 05:26:48;;;;;;;;;;;;;;;1.74;57.45;98121.59;4440776;32;19984;-81
2023/04/04 05:29:15;;;;;;;;;;;;;;;1.42;57.80;98129.41;4440552;32;20422;-81
2023/04/04 05:31:41;;;;;;;;;;;;;;;1.70;57.60;98129.25;4440464;32;20385;-81
2023/04/04 05:34:08;;;;;;;;;;;;;;;2.28;55.79;98139.03;4440752;32;19988;-81
2023/04/04 05:36:35;;;;;;;;;;;;;;;2.88;54.03;98152.91;4440720;32;20346;-81
2023/04/04 05:39:03;;;;;;;;;;;;;;;3.03;52.94;98138.28;4426282;32;20378;-81
2023/04/04 05:41:30;;;;;;;;;;;;;;;3.00;52.65;98113.69;4426978;32;19981;-81
2023/04/04 05:43:57;;;;;;;;;;;;;;;3.55;51.72;98138.50;4440697;32;20003;-81
2023/04/04 05:46:23;;;;;;;;;;;;;;;3.23;51.58;98130.41;4440137;32;19992;-82
2023/04/04 05:48:50;;;;;;;;;;;;;;;3.61;51.85;98143.50;4440422;32;19979;-81
2023/04/04 05:51:17;;;;;;;;;;;;;;;4.24;50.25;98145.97;4440148;32;20542;-82
2023/04/04 05:53:46;;;;;;;;;;;;;;;3.68;50.69;98146.81;4426356;32;19993;-82
2023/04/04 05:56:13;;;;;;;;;;;;;;;4.40;48.97;98144.03;4440519;32;19999;-82
2023/04/04 05:58:40;;;;;;;;;;;;;;;4.38;48.40;98152.59;4440010;32;19961;-82
2023/04/04 06:01:07;;;;;;;;;;;;;;;4.99;47.80;98154.06;4438882;32;19988;-82
2023/04/04 06:03:34;;;;;;;;;;;;;;;4.84;47.48;98158.59;4440367;32;19995;-82
2023/04/04 06:06:03;;;;;;;;;;;;;;;5.50;46.49;98160.72;4439993;32;20015;-82
2023/04/04 06:08:30;;;;;;;;;;;;;;;5.85;45.18;98146.34;4440619;32;20032;-75
2023/04/04 06:11:08;;;;;;;;;;;;;;;4.74;46.48;98135.78;4439999;32;20035;-74
2023/04/04 06:13:35;;;;;;;;;;;;;;;4.53;48.08;98157.44;4439663;32;19991;-74
2023/04/04 06:16:02;;;;;;;;;;;;;;;4.60;47.39;98151.38;4440097;32;19976;-75
2023/04/04 06:18:28;;;;;;;;;;;;;;;4.87;48.17;98167.91;4440069;32;19969;-79
2023/04/04 06:20:55;;;;;;;;;;;;;;;5.11;47.67;98164.09;4440093;32;19973;-80
2023/04/04 06:23:22;;;;;;;;;;;;;;;5.74;46.27;98174.72;4445900;32;19949;-79
2023/04/04 06:25:48;;;;;;;;;;;;;;;5.20;46.72;98171.56;4450882;32;19945;-79
2023/04/04 06:28:16;;;;;;;;;;;;;;;4.76;47.01;98178.31;4437986;32;19956;-80
2023/04/04 06:30:44;;;;;;;;;;;;;;;5.11;46.93;98176.88;4445823;32;19996;-81
2023/04/04 06:33:10;;;;;;;;;;;;;;;5.22;46.80;98169.84;4445543;32;19949;-81
2023/04/04 06:35:37;;;;;;;;;;;;;;;5.36;47.17;98172.09;4444685;32;20350;-81
2023/04/04 06:38:05;;;;;;;;;;;;;;;5.32;46.13;98155.16;4445312;32;20343;-81
2023/04/04 06:40:31;;;;;;;;;;;;;;;4.55;47.69;98155.69;4445365;32;19981;-82
2023/04/04 06:42:58;;;;;;;;;;;;;;;5.42;46.25;98143.81;4450999;32;19995;-80
2023/04/04 06:45:26;;;;;;;;;;;;;;;4.90;46.94;98135.47;4451474;32;19953;-80
2023/04/04 06:47:53;;;;;;;;;;;;;;;5.47;46.03;98131.78;4449567;32;20593;-82
2023/04/04 06:50:21;;;;;;;;;;;;;;;4.44;47.84;98134.59;4444536;32;20026;-81
2023/04/04 06:52:48;;;;;;;;;;;;;;;4.64;47.42;98125.72;4445933;32;19995;-79
2023/04/04 06:55:15;;;;;;;;;;;;;;;4.69;47.41;98128.19;4443882;32;20014;-81
2023/04/04 06:57:42;;;;;;;;;;;;;;;4.25;48.43;98131.50;4443963;32;19998;-82
2023/04/04 07:00:09;;;;;;;;;;;;;;;3.98;48.98;98130.22;4441552;32;19991;-82
2023/04/04 07:02:36;;;;;;;;;;;;;;;4.32;48.14;98128.81;4441445;32;19980;-82
2023/04/04 07:05:03;;;;;;;;;;;;;;;4.50;48.00;98119.16;4441630;32;20288;-81
2023/04/04 07:07:30;;;;;;;;;;;;;;;4.52;47.66;98117.44;4441763;32;20022;-82
2023/04/04 07:09:56;;;;;;;;;;;;;;;4.32;48.72;98108.38;4440941;32;20327;-81
2023/04/04 07:12:23;;;;;;;;;;;;;;;4.31;48.64;98116.91;4441712;32;20038;-81
2023/04/04 07:14:50;;;;;;;;;;;;;;;4.54;48.25;98116.53;4441688;32;20015;-82
2023/04/04 07:17:17;;;;;;;;;;;;;;;5.03;47.00;98125.84;4441445;32;20422;-81
2023/04/04 07:19:50;;;;;;;;;;;;;;;3.90;48.51;98120.13;4442251;32;19981;-82
2023/04/04 07:22:17;;;;;;;;;;;;;;;4.27;48.14;98124.66;4441700;32;19992;-80
2023/04/04 07:24:43;;;;;;;;;;;;;;;3.26;49.79;98141.41;4441564;32;19945;-80
2023/04/04 07:27:13;;;;;;;;;;;;;;;4.21;49.57;98134.97;4441501;32;19973;-81
2023/04/04 07:29:41;;;;;;;;;;;;;;;4.44;49.53;98158.44;4441085;32;19981;-80
2023/04/04 07:32:08;;;;;;;;;;;;;;;4.87;48.62;98161.09;4442704;32;19977;-80
2023/04/04 07:34:35;;;;;;;;;;;;;;;4.05;48.52;98150.53;4442495;32;20048;-80
2023/04/04 07:37:01;;;;;;;;;;;;;;;4.04;48.43;98159.06;4441393;32;20286;-81
2023/04/04 07:39:28;;;;;;;;;;;;;;;4.42;47.47;98154.22;4440850;32;19968;-82
2023/04/04 07:41:55;;;;;;;;;;;;;;;4.52;48.45;98153.19;4444001;32;19984;-83
2023/04/04 07:44:22;;;;;;;;;;;;;;;4.00;48.52;98154.03;4449469;32;19957;-82
2023/04/04 07:46:48;;;;;;;;;;;;;;;4.62;48.72;98165.78;4442732;32;19961;-82
2023/04/04 07:49:34;;;;;;;;;;;;;;;4.15;47.75;98151.25;4441215;32;19989;-83
2023/04/04 07:52:01;;;;;;;;;;;;;;;4.42;47.79;98167.00;4441405;32;19988;-81
2023/04/04 07:54:28;;;;;;;;;;;;;;;3.85;49.19;98152.53;4441844;32;20008;-82
2023/04/04 07:56:54;;;;;;;;;;;;;;;4.29;48.21;98171.47;4442029;32;19965;-81
2023/04/04 07:59:21;;;;;;;;;;;;;;;4.58;47.67;98169.28;4443133;32;20015;-82
2023/04/04 08:01:48;;;;;;;;;;;;;;;4.56;48.31;98173.56;4441797;32;20011;-83
2023/04/04 08:04:15;;;;;;;;;;;;;;;4.91;48.26;98175.50;4444021;32;19991;-82
2023/04/04 08:06:42;;;;;;;;;;;;;;;4.17;47.60;98171.66;4442767;32;20311;-83
2023/04/04 08:09:09;;;;;;;;;;;;;;;3.80;48.79;98176.44;4441044;32;20003;-82
2023/04/04 08:11:37;;;;;;;;;;;;;;;3.90;48.98;98170.34;4440927;32;19981;-82
2023/04/04 08:14:04;;;;;;;;;;;;;;;4.12;48.24;98173.41;4441554;32;20030;-83
2023/04/04 08:16:31;;;;;;;;;;;;;;;5.03;47.11;98177.00;4427763;32;19961;-82
2023/04/04 08:18:59;;;;;;;;;;;;;;;5.40;45.91;98163.47;4443101;32;20000;-83
2023/04/04 08:21:26;;;;;;;;;;;;;;;5.20;46.08;98154.47;4441949;32;20600;-83
2023/04/04 08:23:53;;;;;;;;;;;;;;;5.78;46.20;98160.97;4442222;32;19968;-82
2023/04/04 08:26:20;;;;;;;;;;;;;;;5.73;45.59;98162.78;4443073;32;19973;-83
2023/04/04 08:28:47;;;;;;;;;;;;;;;5.26;46.07;98163.78;4443710;32;20026;-82
2023/04/04 08:31:14;;;;;;;;;;;;;;;5.21;46.79;98166.44;4902582;26;19960;-82
2023/04/04 08:33:55;;;;;;;;;;;;;;;5.56;45.64;98164.87;4506870;31;19967;-82
2023/04/04 08:36:23;;;;;;;;;;;;;;;5.40;46.80;98155.81;4513228;31;19943;-82
2023/04/04 08:38:52;;;;;;;;;;;;;;;5.92;45.28;98153.00;4512936;31;19983;-81
2023/04/04 08:41:19;;;;;;;;;;;;;;;6.92;42.23;98146.31;4509458;31;20039;-81
2023/04/04 08:50:43;;;;;;;;;;;;;;;5.98;44.76;98127.28;4569391;26;20084;-82
2023/04/04 08:59:14;;;;;;;;;;;;;;;7.29;40.91;98117.91;4459078;32;19986;-82
2023/04/04 09:01:41;;;;;;;;;;;;;;;7.23;41.28;98118.06;4473803;32;19994;-82
2023/04/04 09:04:08;;;;;;;;;;;;;;;6.65;41.61;98114.53;4489578;32;19980;-82
2023/04/04 09:06:35;;;;;;;;;;;;;;;7.16;41.96;98122.56;4489518;32;19956;-77
2023/04/04 09:09:02;;;;;;;;;;;;;;;7.25;41.79;98117.16;4487624;32;20015;-81
2023/04/04 09:11:32;;;;;;;;;;;;;;;7.31;40.73;98118.69;4487553;32;19980;-81
2023/04/04 09:14:01;;;;;;;;;;;;;;;6.83;40.94;98124.31;4487615;32;20267;-82
2023/04/04 09:16:28;;;;;;;;;;;;;;;6.96;40.98;98125.66;4473404;32;20025;-80
2023/04/04 09:18:54;;;;;;;;;;;;;;;6.09;41.88;98121.91;4487221;32;19975;-79
2023/04/04 09:21:21;;;;;;;;;;;;;;;6.35;41.31;98095.63;4488794;32;19983;-82
2023/04/04 09:23:56;;;;;;;;;;;;;;;6.54;42.40;98117.38;4489061;32;19986;-84
2023/04/04 09:26:23;;;;;;;;;;;;;;;6.83;42.66;98123.47;4491141;32;19967;-83
2023/04/04 09:28:53;;;;;;;;;;;;;;;7.43;41.28;98110.63;4474106;32;19963;-82
2023/04/04 09:31:20;;;;;;;;;;;;;;;6.36;43.58;98108.41;4474046;32;19979;-83
2023/04/04 09:33:50;;;;;;;;;;;;;;;5.98;43.89;98108.50;4474699;32;19991;-82
2023/04/04 09:36:17;;;;;;;;;;;;;;;6.19;44.28;98123.38;4488771;32;19967;-81
2023/04/04 09:38:48;;;;;;;;;;;;;;;8.19;39.63;98114.31;4473312;32;19973;-81
2023/04/04 09:41:15;;;;;;;;;;;;;;;7.30;40.74;98109.31;4487262;32;19994;-81
2023/04/04 09:43:44;;;;;;;;;;;;;;;6.91;42.64;98103.56;4474783;32;19956;-82
2023/04/04 09:46:10;;;;;;;;;;;;;;;7.08;41.74;98110.81;4490784;32;19948;-83
2023/04/04 09:48:37;;;;;;;;;;;;;;;6.68;42.64;98107.59;4490329;32;20310;-83
2023/04/04 09:51:08;;;;;;;;;;;;;;;6.72;43.14;98105.81;4490537;32;19972;-82
2023/04/04 09:53:36;;;;;;;;;;;;;;;7.49;40.16;98109.63;4476833;32;19987;-83
2023/04/04 09:56:03;;;;;;;;;;;;;;;8.26;41.65;98100.41;4491169;32;20744;-82
2023/04/04 09:58:34;;;;;;;;;;;;;;;6.92;40.66;98093.28;4492328;32;19959;-81
2023/04/04 10:01:02;;;;;;;;;;;;;;;7.46;40.20;98096.91;4559012;26;19977;-83
2023/04/04 10:03:29;;;;;;;;;;;;;;;7.33;39.45;98083.56;4462408;32;19980;-82
2023/04/04 10:06:00;;;;;;;;;;;;;;;7.09;40.05;98105.63;4466784;32;19986;-82
2023/04/04 10:08:27;;;;;;;;;;;;;;;7.02;40.09;98085.31;4448220;32;20376;-84
2023/04/04 10:10:58;;;;;;;;;;;;;;;7.75;39.04;98091.72;4455181;32;20004;-84
2023/04/04 10:13:40;;;;;;;;;;;;;;;7.78;39.85;98090.78;4478622;32;19964;-83
2023/04/04 10:16:07;;;;;;;;;;;;;;;8.22;39.70;98091.12;4479315;32;19948;-84
2023/04/04 10:18:35;;;;;;;;;;;;;;;8.58;38.60;98086.50;4475849;32;19965;-86
2023/04/04 10:21:03;;;;;;;;;;;;;;;8.48;39.15;98088.53;4462479;32;19984;-84
2023/04/04 10:23:41;;;;;;;;;;;;;;;8.16;38.52;98096.44;4481878;32;19985;-83
2023/04/04 10:26:08;;;;;;;;;;;;;;;7.40;39.86;98084.22;4483300;32;19945;-82
2023/04/04 10:28:35;;;;;;;;;;;;;;;7.05;40.43;98087.81;4478339;32;20591;-83
2023/04/04 10:31:06;;;;;;;;;;;;;;;7.22;41.52;98089.00;4481067;32;20017;-82
2023/04/04 10:33:51;;;;;;;;;;;;;;;7.64;40.99;98083.50;4469922;32;19971;-83
2023/04/04 10:36:22;;;;;;;;;;;;;;;7.63;40.12;98079.25;4476681;32;19976;-84
2023/04/04 10:39:07;;;;;;;;;;;;;;;8.60;40.71;98092.44;4459699;32;19965;-84
2023/04/04 10:41:34;;;;;;;;;;;;;;;7.86;38.46;98087.97;4473555;32;19998;-84
2023/04/04 10:44:06;;;;;;;;;;;;;;;6.76;39.38;98093.72;4459628;32;20296;-84
2023/04/04 10:46:33;;;;;;;;;;;;;;;7.43;39.18;98082.41;4473996;32;19976;-84
2023/04/04 10:49:00;;;;;;;;;;;;;;;7.48;40.85;98072.84;4473421;32;19979;-84
2023/04/04 10:51:27;;;;;;;;;;;;;;;7.91;40.90;98086.13;4473304;32;19984;-84
2023/04/04 10:53:54;;;;;;;;;;;;;;;7.93;39.43;98079.19;4459167;32;20040;-83
2023/04/04 10:56:23;;;;;;;;;;;;;;;6.77;40.52;98080.03;4473057;32;19973;-84
2023/04/04 10:58:50;;;;;;;;;;;;;;;7.59;38.56;98074.25;4458903;32;19964;-85
2023/04/04 11:01:19;;;;;;;;;;;;;;;8.31;38.59;98068.53;4458145;32;20007;-84
2023/04/04 11:04:05;;;;;;;;;;;;;;;8.57;37.88;98067.66;4473752;32;20247;-84
2023/04/04 11:06:52;;;;;;;;;;;;;;;8.39;37.90;98071.69;4474955;32;20672;-84
2023/04/04 11:09:38;;;;;;;;;;;;;;;8.34;39.76;98070.16;4473568;32;19960;-85
2023/04/04 11:12:08;;;;;;;;;;;;;;;7.94;40.00;98068.03;4473088;32;19976;-85
2023/04/04 11:14:35;;;;;;;;;;;;;;;8.99;37.97;98082.50;4472866;32;20097;-84
2023/04/04 11:17:04;;;;;;;;;;;;;;;8.51;38.57;98067.88;4473220;32;20025;-84
2023/04/04 11:19:32;;;;;;;;;;;;;;;8.42;37.76;98078.47;4473192;32;19979;-84
2023/04/04 11:21:58;;;;;;;;;;;;;;;7.37;39.53;98062.06;4458884;32;20308;-83
2023/04/04 11:24:27;;;;;;;;;;;;;;;7.28;40.00;98071.75;4473167;32;19979;-84
2023/04/04 11:26:53;;;;;;;;;;;;;;;7.82;41.49;98076.97;4472704;32;19976;-84
2023/04/04 11:29:21;;;;;;;;;;;;;;;9.35;37.95;98057.13;4472325;32;19965;-84
2023/04/04 11:31:48;;;;;;;;;;;;;;;9.44;37.55;98051.63;4472740;32;19981;-84
2023/04/04 11:34:20;;;;;;;;;;;;;;;8.72;37.71;98053.44;4472791;32;19980;-84
2023/04/04 11:36:47;;;;;;;;;;;;;;;8.19;36.65;98066.38;4458236;32;20025;-84
2023/04/04 11:39:18;;;;;;;;;;;;;;;7.89;38.79;98062.22;4473214;32;19964;-85
2023/04/04 11:41:51;;;;;;;;;;;;;;;8.22;39.12;98065.41;4472926;32;19988;-85
2023/04/04 11:44:18;;;;;;;;;;;;;;;8.96;39.46;98064.59;4472448;32;20048;-85
2023/04/04 11:46:46;;;;;;;;;;;;;;;8.65;39.43;98054.53;4473492;32;20444;-83
2023/04/04 11:49:17;;;;;;;;;;;;;;;7.84;40.30;98060.59;4473248;32;20100;-83
2023/04/04 11:51:44;;;;;;;;;;;;;;;7.18;41.09;98058.34;4458795;32;19988;-83
2023/04/04 11:54:17;;;;;;;;;;;;;;;7.39;41.40;98051.75;4458738;32;20011;-83
2023/04/04 11:56:44;;;;;;;;;;;;;;;7.47;38.40;98052.38;4472238;32;19971;-83
2023/04/04 11:59:11;;;;;;;;;;;;;;;7.31;38.65;98051.97;4472460;32;19995;-83
2023/04/04 12:01:39;;;;;;;;;;;;;;;7.10;40.96;98040.59;4472296;32;20029;-83
2023/04/04 12:04:06;;;;;;;;;;;;;;;6.94;40.86;98053.03;4472642;32;19976;-83
2023/04/04 12:06:35;;;;;;;;;;;;;;;7.80;42.02;98060.75;4472364;32;19972;-83
2023/04/04 12:09:05;;;;;;;;;;;;;;;7.76;40.40;98054.88;4472607;32;19960;-83
2023/04/04 12:12:38;;;;;;;15.27;6.00;;;;;;;8.63;38.58;98046.03;4523408;31;315838;-82
2023/04/04 12:15:07;;;;;;;11.00;5.10;;;;;;;8.75;38.40;98040.47;4507600;31;20814;-85
2023/04/04 12:17:44;;;;;;;12.25;4.43;;;;;;;8.22;38.94;98044.84;4510457;31;20091;-84
2023/04/04 12:20:15;;;;;;;11.63;4.80;;;;;;;7.15;39.42;98048.19;4507239;31;20060;-85
2023/04/04 12:22:42;;;;;;;10.63;4.47;;;;;;;6.99;39.58;98055.47;4506015;31;20095;-85
2023/04/04 12:25:09;;;;;;;12.98;6.05;;;;;;;7.00;41.33;98040.91;4490796;32;20083;-86
2023/04/04 12:27:37;;;;;;;12.35;5.93;;;;;;;7.56;40.99;98035.84;4505336;31;20102;-81
2023/04/04 12:30:09;;;;;;;14.60;6.28;;;;;;;7.59;41.04;98035.75;4511048;31;20122;-83
2023/04/04 12:32:36;;;;;;;13.98;5.30;;;;;;;7.75;40.69;98042.06;4489300;32;20103;-83
2023/04/04 12:35:04;;;;;;;12.52;5.65;;;;;;;7.83;38.97;98025.53;4501795;32;20737;-82
2023/04/04 12:37:32;;;;;;;15.10;5.95;;;;;;;7.81;39.50;98019.59;4488856;32;20093;-83
2023/04/04 12:40:01;;;;;;;13.23;5.72;;;;;;;7.68;39.09;98027.75;4501220;31;20178;-83
2023/04/04 12:42:30;;;;;;;13.55;5.37;;;;;;;7.75;41.14;98018.94;4502762;31;20096;-83
2023/04/04 12:44:57;;;;;;;12.98;5.05;;;;;;;7.97;39.30;98019.09;4500487;32;20107;-82
2023/04/04 12:47:25;;;;;;;11.82;5.43;;;;;;;7.58;39.79;98024.63;4498978;31;20088;-82
2023/04/04 12:49:56;;;;;;;13.90;5.70;;;;;;;7.68;40.40;98020.91;4484935;32;20148;-82
2023/04/04 12:52:31;;;;;;;14.38;6.28;;;;;;;7.23;40.38;98018.84;4498624;31;20096;-82
2023/04/04 12:55:01;;;;;;;11.95;5.43;;;;;;;7.85;39.46;98012.63;4498991;31;20093;-83
2023/04/04 12:57:35;;;;;;;12.68;5.10;;;;;;;7.22;40.51;98026.56;4499023;32;20586;-81
2023/04/04 13:00:05;;;;;;;16.33;5.55;;;;;;;6.59;42.24;98018.13;4498444;31;20160;-81
2023/04/04 13:02:34;;;;;;;13.35;5.75;;;;;;;6.93;41.13;98012.06;4498674;31;20110;-81
2023/04/04 13:05:02;;;;;;;12.10;5.53;;;;;;;6.75;41.20;98015.97;4498872;31;20106;-78
2023/04/04 13:07:41;;;;;;;13.68;5.82;;;;;;;6.65;40.83;98033.31;4498513;32;20088;-79